Time;durP1;ratioP1;P1;durP2;ratioP2;P2;SDS_P1;SDS_P2;PMS_P1;PMS_P2;Temp;Humidity;BMP_temperature;BMP_pressure;BME280_temperature;BME280_humidity;BME280_pressure;Samples;Min_cycle;Max_cycle;Signal;HPM_P1;HPM_P2
2021/08/18 00:00:24;;;;;;;;;;;16.00;95.70;;;;;;4332190;33;44969;-84
2021/08/18 00:03:02;;;;;;;;;;;16.00;95.70;;;;;;4329687;33;44043;-84
2021/08/18 00:05:38;;;;;;;;;;;16.10;95.70;;;;;;4331219;33;45629;-85
2021/08/18 00:08:06;;;;;;;;;;;16.00;95.70;;;;;;4331012;33;44492;-86
2021/08/18 00:10:44;;;;;;;;;;;16.10;95.80;;;;;;4330929;33;46024;-85
2021/08/18 00:13:19;;;;;;;;;;;16.00;95.70;;;;;;4330838;33;45413;-85
2021/08/18 00:15:56;;;;;;;;;;;16.10;95.80;;;;;;4330950;33;45245;-85
2021/08/18 00:18:35;;;;;;;;;;;16.00;95.80;;;;;;4330802;33;46053;-85
2021/08/18 00:21:16;;;;;;;;;;;16.00;95.80;;;;;;4331734;33;20013;-84
2021/08/18 00:23:49;;;;;;;;;;;16.00;95.80;;;;;;4331844;33;44862;-84
2021/08/18 00:26:25;;;;;;;;;;;16.00;95.80;;;;;;4330961;33;44241;-85
2021/08/18 00:29:03;;;;;;;;;;;16.10;95.80;;;;;;4330635;33;42538;-85
2021/08/18 00:31:36;;;;;;;;;;;16.00;95.80;;;;;;4330679;33;44058;-85
2021/08/18 00:34:11;;;;;;;;;;;16.00;95.80;;;;;;4331168;33;43030;-84
2021/08/18 00:36:44;;;;;;;;;;;16.10;95.90;;;;;;4331897;33;44443;-85
2021/08/18 00:39:17;;;;;;;;;;;16.10;95.90;;;;;;4330362;33;45646;-86
2021/08/18 00:41:52;;;;;;;;;;;16.10;95.90;;;;;;4330424;33;44649;-84
2021/08/18 00:44:25;;;;;;;;;;;16.10;95.90;;;;;;4331351;33;42916;-85
2021/08/18 00:47:03;;;;;;;;;;;16.10;95.90;;;;;;4330145;33;43193;-85
2021/08/18 00:49:31;;;;;;;;;;;16.10;95.90;;;;;;4331596;33;45613;-86
2021/08/18 00:52:12;;;;;;;;;;;16.10;95.90;;;;;;4331277;33;19998;-85
2021/08/18 00:54:52;;;;;;;;;;;16.10;95.90;;;;;;4330305;33;45941;-83
2021/08/18 00:57:25;;;;;;;;;;;16.10;96.00;;;;;;4330602;33;43346;-81
2021/08/18 01:00:01;;;;;;;;;;;16.10;95.90;;;;;;4329869;33;43890;-84
2021/08/18 01:02:28;;;;;;;;;;;16.10;95.90;;;;;;4336369;33;46214;-84
2021/08/18 01:05:01;;;;;;;;;;;16.10;95.90;;;;;;4332713;33;43503;-84
2021/08/18 01:07:37;;;;;;;;;;;16.10;96.00;;;;;;4345723;33;44052;-85
2021/08/18 01:10:10;;;;;;;;;;;16.10;95.90;;;;;;4332723;33;42762;-84
2021/08/18 01:12:48;;;;;;;;;;;16.10;95.90;;;;;;4345656;33;45315;-85
2021/08/18 01:15:22;;;;;;;;;;;16.10;96.00;;;;;;4345740;33;45775;-85
2021/08/18 01:17:58;;;;;;;;;;;16.10;96.00;;;;;;4345964;33;45281;-84
2021/08/18 01:20:40;;;;;;;;;;;16.10;96.00;;;;;;4332771;33;45288;-84
2021/08/18 01:23:17;;;;;;;;;;;16.10;96.00;;;;;;4345684;33;45215;-86
2021/08/18 01:25:44;;;;;;;;;;;16.10;96.00;;;;;;4345903;33;44017;-86
2021/08/18 01:28:22;;;;;;;;;;;16.00;96.00;;;;;;4332473;33;42570;-84
2021/08/18 01:30:52;;;;;;;;;;;16.10;96.00;;;;;;4331981;33;43305;-84
2021/08/18 01:33:30;;;;;;;;;;;16.10;96.10;;;;;;4332225;33;42971;-85
2021/08/18 01:36:05;;;;;;;;;;;16.00;96.10;;;;;;4331953;33;43506;-84
2021/08/18 01:38:47;;;;;;;;;;;16.10;96.00;;;;;;4332222;33;43196;-83
2021/08/18 01:41:22;;;;;;;;;;;16.10;96.00;;;;;;4332260;33;44221;-81
2021/08/18 01:43:52;;;;;;;;;;;16.10;96.10;;;;;;4332200;33;46012;-87
2021/08/18 01:46:19;;;;;;;;;;;16.10;96.40;;;;;;4345609;33;41850;-85
2021/08/18 01:48:49;;;;;;;;;;;16.10;96.10;;;;;;4332691;33;45830;-84
2021/08/18 01:51:25;;;;;;;;;;;16.10;96.10;;;;;;4332088;33;45128;-86
2021/08/18 01:54:03;;;;;;;;;;;16.10;96.10;;;;;;4332136;33;43767;-85
2021/08/18 01:56:33;;;;;;;;;;;16.10;96.10;;;;;;4332100;33;44629;-85
2021/08/18 01:59:03;;;;;;;;;;;16.10;96.10;;;;;;4345188;33;43431;-84
2021/08/18 02:01:42;;;;;;;;;;;16.10;96.20;;;;;;4345206;33;43262;-85
2021/08/18 02:04:21;;;;;;;;;;;16.10;96.20;;;;;;4331490;33;45689;-84
2021/08/18 02:06:56;;;;;;;;;;;16.10;96.10;;;;;;4332045;33;45313;-85
2021/08/18 02:09:31;;;;;;;;;;;16.10;96.10;;;;;;4332083;33;45111;-84
2021/08/18 02:12:09;;;;;;;;;;;16.10;96.10;;;;;;4332242;33;46232;-82
2021/08/18 02:14:37;;;;;;;;;;;16.10;96.10;;;;;;4332262;33;44465;-82
2021/08/18 02:17:04;;;;;;;;;;;16.10;96.20;;;;;;4331678;33;44945;-82
2021/08/18 02:19:32;;;;;;;;;;;16.10;96.20;;;;;;4331885;33;45304;-81
2021/08/18 02:21:59;;;;;;;;;;;16.10;96.10;;;;;;4331857;33;45881;-81
2021/08/18 02:24:26;;;;;;;;;;;16.10;96.10;;;;;;4332817;33;20001;-81
2021/08/18 02:26:53;;;;;;;;;;;16.10;96.10;;;;;;4334480;33;45007;-81
2021/08/18 02:29:20;;;;;;;;;;;16.10;96.10;;;;;;4335040;33;45334;-81
2021/08/18 02:31:48;;;;;;;;;;;16.10;96.20;;;;;;4335012;33;44217;-83
2021/08/18 02:34:15;;;;;;;;;;;16.10;96.20;;;;;;4334917;33;45967;-81
2021/08/18 02:36:42;;;;;;;;;;;16.10;96.10;;;;;;4334264;33;45327;-81
2021/08/18 02:39:09;;;;;;;;;;;16.10;96.10;;;;;;4334428;33;44011;-80
2021/08/18 02:41:36;;;;;;;;;;;16.10;96.10;;;;;;4334206;33;45338;-81
2021/08/18 02:44:03;;;;;;;;;;;16.10;96.10;;;;;;4334717;33;44982;-81
2021/08/18 02:46:30;;;;;;;;;;;16.10;96.20;;;;;;4334709;33;44047;-81
2021/08/18 02:48:58;;;;;;;;;;;16.10;96.20;;;;;;4334676;33;45772;-81
2021/08/18 02:51:25;;;;;;;;;;;16.10;96.20;;;;;;4334103;33;44495;-81
2021/08/18 02:53:52;;;;;;;;;;;16.10;96.20;;;;;;4334594;33;45337;-81
2021/08/18 02:56:19;;;;;;;;;;;16.10;96.20;;;;;;4334006;33;44201;-81
2021/08/18 02:58:46;;;;;;;;;;;16.10;96.20;;;;;;4334101;33;44012;-81
2021/08/18 03:01:13;;;;;;;;;;;16.10;96.20;;;;;;4334216;33;45441;-80
2021/08/18 03:03:40;;;;;;;;;;;16.10;96.20;;;;;;4334021;33;44358;-80
2021/08/18 03:06:08;;;;;;;;;;;16.10;96.20;;;;;;4334394;33;46011;-82
2021/08/18 03:08:35;;;;;;;;;;;16.10;96.20;;;;;;4334319;33;45436;-81
2021/08/18 03:11:02;;;;;;;;;;;16.10;96.30;;;;;;4334210;33;45871;-82
2021/08/18 03:13:29;;;;;;;;;;;16.10;96.30;;;;;;4333818;33;44585;-82
2021/08/18 03:15:57;;;;;;;;;;;16.10;96.30;;;;;;4334315;33;44309;-81
2021/08/18 03:18:27;;;;;;;;;;;16.10;96.30;;;;;;4334295;33;44460;-81
2021/08/18 03:20:55;;;;;;;;;;;16.10;96.30;;;;;;4334192;33;44847;-81
2021/08/18 03:23:22;;;;;;;;;;;16.10;96.30;;;;;;4334253;33;43613;-81
2021/08/18 03:25:49;;;;;;;;;;;16.10;96.20;;;;;;4333722;33;46358;-81
2021/08/18 03:28:16;;;;;;;;;;;16.10;96.20;;;;;;4334106;33;46203;-81
2021/08/18 03:30:44;;;;;;;;;;;16.10;96.20;;;;;;4334050;33;44418;-80
2021/08/18 03:33:11;;;;;;;;;;;16.10;96.30;;;;;;4334149;33;44168;-81
2021/08/18 03:35:38;;;;;;;;;;;16.10;96.20;;;;;;4333921;33;44387;-80
2021/08/18 03:38:05;;;;;;;;;;;16.20;96.30;;;;;;4333325;33;45017;-81
2021/08/18 03:40:32;;;;;;;;;;;16.20;96.30;;;;;;4333874;33;44582;-80
2021/08/18 03:43:00;;;;;;;;;;;16.10;96.30;;;;;;4333757;33;43466;-80
2021/08/18 03:45:28;;;;;;;;;;;16.20;96.30;;;;;;4346874;33;44715;-80
2021/08/18 03:47:55;;;;;;;;;;;16.20;96.30;;;;;;4347112;33;44018;-81
2021/08/18 03:50:22;;;;;;;;;;;16.20;96.30;;;;;;4346867;33;45281;-80
2021/08/18 03:52:49;;;;;;;;;;;16.20;96.30;;;;;;4333314;33;44282;-81
2021/08/18 03:55:17;;;;;;;;;;;16.10;96.30;;;;;;4333356;33;42926;-81
2021/08/18 03:57:44;;;;;;;;;;;16.10;96.30;;;;;;4333688;33;44950;-81
2021/08/18 04:00:14;;;;;;;;;;;16.20;96.40;;;;;;4333396;33;45064;-80
2021/08/18 04:02:42;;;;;;;;;;;16.20;96.40;;;;;;4332964;33;45325;-80
2021/08/18 04:05:09;;;;;;;;;;;16.20;96.40;;;;;;4333031;33;45393;-80
2021/08/18 04:07:37;;;;;;;;;;;16.20;96.40;;;;;;4333122;33;43378;-80
2021/08/18 04:10:04;;;;;;;;;;;16.20;96.40;;;;;;4333495;33;45779;-80
2021/08/18 04:12:31;;;;;;;;;;;16.20;96.40;;;;;;4333159;33;43932;-81
2021/08/18 04:14:58;;;;;;;;;;;16.20;96.40;;;;;;4333619;33;44522;-81
2021/08/18 04:17:25;;;;;;;;;;;16.10;96.30;;;;;;4333606;33;45293;-80
2021/08/18 04:19:53;;;;;;;;;;;16.10;96.40;;;;;;4346061;33;45669;-81
2021/08/18 04:22:20;;;;;;;;;;;16.20;96.40;;;;;;4333324;33;44272;-81
2021/08/18 04:24:47;;;;;;;;;;;16.20;96.40;;;;;;4333323;33;44130;-80
2021/08/18 04:27:14;;;;;;;;;;;16.20;96.40;;;;;;4333263;33;44715;-80
2021/08/18 04:29:41;;;;;;;;;;;16.20;96.40;;;;;;4332763;33;44325;-80
2021/08/18 04:32:08;;;;;;;;;;;16.20;96.40;;;;;;4333329;33;43474;-80
2021/08/18 04:34:35;;;;;;;;;;;16.20;96.40;;;;;;4333071;33;44256;-80
2021/08/18 04:37:03;;;;;;;;;;;16.20;96.40;;;;;;4332662;33;44777;-81
2021/08/18 04:39:30;;;;;;;;;;;16.20;96.40;;;;;;4333381;33;44494;-81
2021/08/18 04:41:58;;;;;;;;;;;16.20;96.40;;;;;;4333042;33;45645;-80
2021/08/18 04:44:25;;;;;;;;;;;16.20;96.40;;;;;;4332891;33;45336;-81
2021/08/18 04:46:58;;;;;;;;;;;16.20;96.40;;;;;;4332953;33;45122;-81
2021/08/18 04:49:25;;;;;;;;;;;16.20;96.40;;;;;;4332516;33;43694;-81
2021/08/18 04:51:52;;;;;;;;;;;16.20;96.40;;;;;;4332364;33;43956;-80
2021/08/18 04:54:19;;;;;;;;;;;16.20;96.40;;;;;;4332639;33;45382;-80
2021/08/18 04:56:47;;;;;;;;;;;16.20;96.40;;;;;;4332840;33;45769;-80
2021/08/18 04:59:14;;;;;;;;;;;16.20;96.40;;;;;;4332316;33;44425;-80
2021/08/18 05:01:41;;;;;;;;;;;16.20;96.40;;;;;;4332566;33;45394;-81
2021/08/18 05:04:08;;;;;;;;;;;16.20;96.40;;;;;;4332847;33;45086;-81
2021/08/18 05:06:35;;;;;;;;;;;16.20;96.50;;;;;;4332700;33;44306;-81
2021/08/18 05:09:02;;;;;;;;;;;16.20;96.50;;;;;;4332636;33;44016;-80
2021/08/18 05:11:29;;;;;;;;;;;16.20;96.40;;;;;;4332665;33;45666;-83
2021/08/18 05:13:56;;;;;;;;;;;16.20;96.40;;;;;;4332531;33;43989;-81
2021/08/18 05:16:24;;;;;;;;;;;16.20;96.50;;;;;;4332495;33;44427;-80
2021/08/18 05:18:51;;;;;;;;;;;16.20;96.50;;;;;;4332179;33;45324;-80
2021/08/18 05:21:18;;;;;;;;;;;16.20;96.50;;;;;;4332406;33;45316;-80
2021/08/18 05:23:45;;;;;;;;;;;16.20;96.50;;;;;;4332520;33;43508;-80
2021/08/18 05:26:12;;;;;;;;;;;16.20;96.40;;;;;;4332321;33;44841;-80
2021/08/18 05:28:39;;;;;;;;;;;16.20;96.50;;;;;;4332048;33;44372;-80
2021/08/18 05:31:07;;;;;;;;;;;16.20;96.50;;;;;;4332287;33;46004;-81
2021/08/18 05:33:34;;;;;;;;;;;16.20;96.50;;;;;;4332331;33;45538;-81
2021/08/18 05:36:03;;;;;;;;;;;16.20;96.50;;;;;;4332324;33;45721;-81
2021/08/18 05:38:30;;;;;;;;;;;16.20;96.50;;;;;;4332208;33;44565;-81
2021/08/18 05:40:57;;;;;;;;;;;16.20;96.50;;;;;;4332153;33;44939;-83
2021/08/18 05:43:24;;;;;;;;;;;16.20;96.60;;;;;;4344862;33;44401;-81
2021/08/18 05:45:52;;;;;;;;;;;16.20;96.60;;;;;;4331763;33;44454;-80
2021/08/18 05:48:19;;;;;;;;;;;16.20;96.50;;;;;;4332336;33;44601;-81
2021/08/18 05:50:46;;;;;;;;;;;16.20;96.50;;;;;;4332383;33;44625;-81
2021/08/18 05:53:17;;;;;;;;;;;16.20;96.50;;;;;;4332250;33;45394;-85
2021/08/18 05:55:45;;;;;;;;;;;16.20;96.50;;;;;;4332168;33;45730;-82
2021/08/18 05:58:12;;;;;;;;;;;16.20;96.50;;;;;;4331575;33;45394;-81
2021/08/18 06:00:40;;;;;;;;;;;16.20;96.50;;;;;;4330872;33;45372;-81
2021/08/18 06:03:08;;;;;;;;;;;16.20;96.50;;;;;;4344957;33;44996;-81
2021/08/18 06:05:36;;;;;;;;;;;16.20;96.60;;;;;;4331698;33;44395;-82
2021/08/18 06:08:04;;;;;;;;;;;16.20;96.60;;;;;;4331558;33;44260;-81
2021/08/18 06:10:31;;;;;;;;;;;16.20;96.60;;;;;;4331891;33;45256;-81
2021/08/18 06:13:01;;;;;;;;;;;16.20;96.60;;;;;;4331495;33;45156;-81
2021/08/18 06:15:29;;;;;;;;;;;16.20;96.60;;;;;;4332128;33;45577;-83
2021/08/18 06:17:56;;;;;;;;;;;16.30;96.70;;;;;;4331740;33;44140;-80
2021/08/18 06:20:24;;;;;;;;;;;16.30;96.60;;;;;;4331912;33;44911;-82
2021/08/18 06:22:51;;;;;;;;;;;16.20;96.60;;;;;;4331417;33;45751;-82
2021/08/18 06:25:19;;;;;;;;;;;16.20;96.60;;;;;;4331430;33;46233;-81
2021/08/18 06:27:46;;;;;;;;;;;16.30;96.60;;;;;;4331934;33;43638;-81
2021/08/18 06:30:14;;;;;;;;;;;16.20;96.60;;;;;;4332028;33;44956;-81
2021/08/18 06:32:41;;;;;;;;;;;16.30;96.60;;;;;;4331967;33;44294;-83
2021/08/18 06:35:08;;;;;;;;;;;16.20;96.60;;;;;;4331311;33;44700;-81
2021/08/18 06:37:38;;;;;;;;;;;16.30;96.70;;;;;;4331989;33;45888;-83
2021/08/18 06:40:06;;;;;;;;;;;16.30;96.70;;;;;;4331759;33;44797;-82
2021/08/18 06:42:33;;;;;;;;;;;16.30;96.70;;;;;;4331870;33;44527;-81
2021/08/18 06:45:01;;;;;;;;;;;16.30;96.70;;;;;;4331427;33;45101;-82
2021/08/18 06:47:28;;;;;;;;;;;16.30;96.70;;;;;;4344985;33;45416;-83
2021/08/18 06:50:00;;;;;;;;;;;16.30;96.70;;;;;;4331744;33;45618;-84
2021/08/18 06:52:33;;;;;;;;;;;16.30;96.70;;;;;;4331989;33;45148;-81
2021/08/18 06:55:00;;;;;;;;;;;16.30;96.80;;;;;;4331267;33;45361;-82
2021/08/18 06:57:28;;;;;;;;;;;16.30;96.80;;;;;;4331142;33;45333;-82
2021/08/18 06:59:55;;;;;;;;;;;16.30;96.80;;;;;;4331243;33;44015;-81
2021/08/18 07:02:22;;;;;;;;;;;16.30;96.70;;;;;;4344182;33;45382;-84
2021/08/18 07:04:52;;;;;;;;;;;16.30;96.80;;;;;;4331654;33;44805;-84
2021/08/18 07:07:19;;;;;;;;;;;16.30;96.80;;;;;;4331870;33;45001;-83
2021/08/18 07:09:46;;;;;;;;;;;16.30;96.80;;;;;;4331272;33;43840;-83
2021/08/18 07:12:18;;;;;;;;;;;16.30;96.80;;;;;;4333893;33;45665;-82
2021/08/18 07:14:53;;;;;;;;;;;16.30;96.80;;;;;;4334003;33;44276;-84
2021/08/18 07:17:31;;;;;;;;;;;16.30;96.80;;;;;;4347483;33;45346;-82
2021/08/18 07:20:10;;;;;;;;;;;16.30;96.80;;;;;;4334098;33;42824;-82
2021/08/18 07:22:48;;;;;;;;;;;16.30;96.80;;;;;;4334301;33;44399;-83
2021/08/18 07:25:24;;;;;;;;;;;16.30;96.80;;;;;;4333728;33;44201;-84
2021/08/18 07:28:03;;;;;;;;;;;16.30;96.90;;;;;;4334170;33;45464;-83
2021/08/18 07:30:30;;;;;;;;;;;16.30;97.20;;;;;;4347375;33;44768;-84
2021/08/18 07:33:00;;;;;;;;;;;16.40;96.90;;;;;;4334335;33;45967;-84
2021/08/18 07:35:37;;;;;;;;;;;16.30;96.90;;;;;;4347227;33;44691;-82
2021/08/18 07:38:15;;;;;;;;;;;16.30;96.90;;;;;;4333894;33;45779;-83
2021/08/18 07:40:54;;;;;;;;;;;16.30;96.80;;;;;;4333993;33;43996;-86
2021/08/18 07:43:32;;;;;;;;;;;16.30;96.90;;;;;;4333977;33;46096;-81
2021/08/18 07:46:10;;;;;;;;;;;16.30;96.90;;;;;;4334271;33;45832;-85
2021/08/18 07:48:45;;;;;;;;;;;16.40;96.90;;;;;;4347110;33;42325;-85
2021/08/18 07:51:20;;;;;;;;;;;16.40;96.90;;;;;;4333730;33;43471;-85
2021/08/18 07:53:53;;;;;;;;;;;16.40;96.90;;;;;;4333485;33;42918;-84
2021/08/18 07:56:31;;;;;;;;;;;16.40;97.00;;;;;;4333733;33;43733;-84
2021/08/18 07:59:07;;;;;;;;;;;16.40;97.00;;;;;;4333749;33;45389;-85
2021/08/18 08:01:37;;;;;;;;;;;16.40;97.00;;;;;;4334183;33;44933;-86
2021/08/18 08:04:10;;;;;;;;;;;16.40;97.00;;;;;;4333568;33;45640;-84
2021/08/18 08:06:51;;;;;;;;;;;16.40;97.00;;;;;;4333807;33;44142;-84
2021/08/18 08:09:24;;;;;;;;;;;16.40;97.00;;;;;;4346820;33;45719;-84
2021/08/18 08:12:02;;;;;;;;;;;16.40;97.00;;;;;;4346721;33;44802;-84
2021/08/18 08:14:37;;;;;;;;;;;16.50;97.00;;;;;;4346782;33;45990;-84
2021/08/18 08:17:16;;;;;;;;;;;16.40;97.00;;;;;;4333839;33;45759;-82
2021/08/18 08:19:49;;;;;;;;;;;16.40;97.00;;;;;;4333501;33;44519;-84
2021/08/18 08:22:19;;;;;;;;;;;16.50;97.00;;;;;;4333125;33;44017;-85
2021/08/18 08:24:55;;;;;;;;;;;16.40;97.00;;;;;;4332675;33;43806;-84
2021/08/18 08:27:30;;;;;;;;;;;16.50;97.00;;;;;;4333023;33;43303;-85
2021/08/18 08:30:02;;;;;;;;;;;16.50;97.00;;;;;;4346506;33;43992;-85
2021/08/18 08:32:34;;;;;;;;;;;16.50;97.00;;;;;;4346655;33;43775;-82
2021/08/18 08:35:07;;;;;;;;;;;16.50;97.00;;;;;;4346471;33;44269;-84
2021/08/18 08:37:35;;;;;;;;;;;16.50;97.00;;;;;;4346028;33;43243;-85
2021/08/18 08:40:08;;;;;;;;;;;16.50;97.00;;;;;;4333178;33;43892;-84
2021/08/18 08:42:39;;;;;;;;;;;16.50;96.90;;;;;;4333164;33;43474;-84
2021/08/18 08:45:15;;;;;;;;;;;16.50;97.00;;;;;;4345749;33;44326;-83
2021/08/18 08:47:45;;;;;;;;;;;16.50;97.00;;;;;;4345858;33;42462;-82
2021/08/18 08:50:16;;;;;;;;;;;16.50;97.00;;;;;;4333417;33;44055;-82
2021/08/18 08:52:43;;;;;;;;;;;16.50;97.00;;;;;;4346139;33;44151;-84
2021/08/18 08:55:13;;;;;;;;;;;16.50;97.00;;;;;;4332380;33;44891;-85
2021/08/18 08:57:50;;;;;;;;;;;16.60;97.00;;;;;;4333292;33;43579;-86
2021/08/18 09:00:23;;;;;;;;;;;16.60;97.00;;;;;;4346154;33;44310;-85
2021/08/18 09:03:06;;;;;;;;;;;16.60;97.00;;;;;;4345643;33;44248;-82
2021/08/18 09:05:33;;;;;;;;;;;16.50;97.00;;;;;;4332259;33;43046;-81
2021/08/18 09:08:01;;;;;;;;;;;16.60;97.00;;;;;;4346001;33;43491;-82
2021/08/18 09:10:28;;;;;;;;;;;16.60;97.00;;;;;;4345959;33;43109;-84
2021/08/18 09:13:11;;;;;;;;;;;16.60;97.00;;;;;;4345637;33;44209;-83
2021/08/18 09:15:41;;;;;;;;;;;16.60;97.00;;;;;;4345551;33;43911;-83
2021/08/18 09:18:08;;;;;;;;;;;16.60;97.00;;;;;;4345661;33;43208;-83
2021/08/18 09:20:40;;;;;;;;;;;16.60;97.00;;;;;;4345389;33;43804;-81
2021/08/18 09:23:09;;;;;;;;;;;16.60;97.00;;;;;;4332635;33;44283;-84
2021/08/18 09:25:39;;;;;;;;;;;16.60;97.00;;;;;;4332019;33;44172;-80
2021/08/18 09:28:06;;;;;;;;;;;16.60;97.00;;;;;;4345745;33;43461;-81
2021/08/18 09:30:38;;;;;;;;;;;16.60;97.00;;;;;;4333049;33;20005;-83
2021/08/18 09:33:10;;;;;;;;;;;16.60;97.00;;;;;;4332482;33;43878;-84
2021/08/18 09:35:40;;;;;;;;;;;16.60;96.90;;;;;;4344951;33;42734;-82
2021/08/18 09:38:14;;;;;;;;;;;16.70;96.90;;;;;;4331876;33;44423;-83
2021/08/18 09:40:43;;;;;;;;;;;16.60;97.00;;;;;;4331850;33;42990;-82
2021/08/18 09:43:13;;;;;;;;;;;16.70;97.00;;;;;;4332117;33;44177;-83
2021/08/18 09:46:00;;;;;;;;;;;16.70;97.00;;;;;;4331771;33;42938;-83
2021/08/18 09:48:28;;;;;;;;;;;16.70;97.00;;;;;;4345128;33;42289;-84
2021/08/18 09:51:00;;;;;;;;;;;16.70;97.00;;;;;;4345095;33;43970;-83
2021/08/18 09:53:27;;;;;;;;;;;16.70;97.00;;;;;;4332223;33;44909;-82
2021/08/18 09:56:00;;;;;;;;;;;16.70;97.00;;;;;;4345452;33;43498;-84
2021/08/18 09:58:31;;;;;;;;;;;16.70;97.00;;;;;;4345393;33;43478;-84
2021/08/18 10:01:00;;;;;;;;;;;16.70;97.00;;;;;;4345854;33;20419;-83
2021/08/18 10:03:30;;;;;;;;;;;16.70;97.00;;;;;;4344757;33;43325;-81
2021/08/18 10:05:57;;;;;;;;;;;16.70;97.00;;;;;;4344924;33;44219;-82
2021/08/18 10:08:24;;;;;;;;;;;16.70;97.00;;;;;;4344840;33;43076;-83
2021/08/18 10:10:52;;;;;;;;;;;16.80;97.00;;;;;;4345210;33;42974;-83
2021/08/18 10:13:20;;;;;;;;;;;16.80;97.00;;;;;;4344752;33;43940;-81
2021/08/18 10:15:47;;;;;;;;;;;16.80;97.00;;;;;;4345046;33;43265;-85
2021/08/18 10:18:28;;;;;;;;;;;16.80;97.00;;;;;;4345313;33;43975;-84
2021/08/18 10:20:58;;;;;;;;;;;16.80;97.00;;;;;;4345020;33;43524;-81
2021/08/18 10:23:44;;;;;;;;;;;16.80;97.00;;;;;;4345114;33;43784;-83
2021/08/18 10:26:36;;;;;;;;;;;16.80;96.90;;;;;;4345138;33;45941;-79
2021/08/18 10:29:16;;;;;;;;;;;16.80;96.90;;;;;;4344738;33;43018;-83
2021/08/18 10:31:47;;;;;;;;;;;16.80;96.90;;;;;;4332947;33;20039;-84
2021/08/18 10:34:33;;;;;;;;;;;16.80;97.00;;;;;;4331488;33;43384;-84
2021/08/18 10:37:16;;;;;;;;;;;16.80;96.90;;;;;;4331869;33;43474;-83
2021/08/18 10:39:51;;;;;;;;;;;16.80;96.90;;;;;;4345350;33;43268;-82
2021/08/18 10:42:21;;;;;;;;;;;16.80;96.90;;;;;;4332000;33;42790;-83
2021/08/18 10:44:52;;;;;;;;;;;16.90;96.90;;;;;;4331160;33;44351;-84
2021/08/18 10:47:29;;;;;;;;;;;16.90;96.90;;;;;;4346722;33;44654;-82
2021/08/18 10:49:56;;;;;;;;;;;16.80;96.90;;;;;;4334935;33;44247;-81
2021/08/18 10:52:29;;;;;;;;;;;16.90;97.00;;;;;;4347513;33;42354;-80
2021/08/18 10:55:15;;;;;;;;;;;16.90;97.00;;;;;;4334549;33;45143;-82
2021/08/18 10:57:47;;;;;;;;;;;16.90;97.00;;;;;;4334607;33;43431;-83
2021/08/18 11:00:17;;;;;;;;;;;16.90;97.00;;;;;;4347627;33;42570;-82
2021/08/18 11:02:47;;;;;;;;;;;16.90;97.00;;;;;;4348101;33;20014;-84
2021/08/18 11:05:16;;;;;;;;;;;16.90;97.00;;;;;;4334437;33;42598;-82
2021/08/18 11:08:00;;;;;;;;;;;16.90;97.00;;;;;;4333928;33;43169;-81
2021/08/18 11:10:27;;;;;;;;;;;16.90;97.00;;;;;;4347206;33;43483;-81
2021/08/18 11:12:57;;;;;;;;;;;16.90;97.00;;;;;;4347534;33;43977;-83
2021/08/18 11:15:24;;;;;;;;;;;16.90;97.00;;;;;;4347608;33;43677;-82
2021/08/18 11:17:56;;;;;;;;;;;16.90;97.00;;;;;;4334491;33;42791;-81
2021/08/18 11:20:28;;;;;;;;;;;16.90;97.00;;;;;;4334316;33;44262;-81
2021/08/18 11:23:02;;;;;;;;;;;16.90;97.00;;;;;;4347675;33;43257;-83
2021/08/18 11:25:29;;;;;;;;;;;17.00;97.00;;;;;;4347491;33;44221;-83
2021/08/18 11:27:57;;;;;;;;;;;17.00;97.00;;;;;;4333685;33;43120;-82
2021/08/18 11:30:25;;;;;;;;;;;17.00;97.00;;;;;;4347470;33;43543;-84
2021/08/18 11:32:55;;;;;;;;;;;17.00;97.00;;;;;;4334975;33;20016;-82
2021/08/18 11:35:31;;;;;;;;;;;17.00;96.90;;;;;;4334262;33;42533;-83
2021/08/18 11:38:04;;;;;;;;;;;17.00;96.90;;;;;;4347276;33;43866;-82
2021/08/18 11:40:32;;;;;;;;;;;17.00;96.90;;;;;;4347003;33;44600;-82
2021/08/18 11:42:59;;;;;;;;;;;17.00;96.90;;;;;;4347332;33;43106;-81
2021/08/18 11:45:26;;;;;;;;;;;17.00;96.90;;;;;;4333515;33;43279;-82
2021/08/18 11:48:12;;;;;;;;;;;17.00;96.90;;;;;;4334037;33;43311;-82
2021/08/18 11:50:49;;;;;;;;;;;17.00;96.90;;;;;;4346978;33;43055;-83
2021/08/18 11:53:21;;;;;;;;;;;17.10;96.90;;;;;;4347130;33;45684;-82
2021/08/18 11:55:58;;;;;;;;;;;17.00;96.90;;;;;;4347049;33;42727;-83
2021/08/18 11:58:34;;;;;;;;;;;17.00;96.90;;;;;;4346710;33;43862;-83
2021/08/18 12:01:06;;;;;;;;;;;17.00;96.90;;;;;;4347146;33;43225;-81
2021/08/18 12:03:33;;;;;;;;;;;17.10;96.90;;;;;;4347736;33;20457;-81
2021/08/18 12:06:02;;;;;;;;;;;17.10;96.90;;;;;;4346343;33;43543;-81
2021/08/18 12:08:36;;;;;;;;;;;17.10;96.90;;;;;;4333923;33;45285;-83
2021/08/18 12:11:04;;;;;;;;;;;17.10;96.90;;;;;;4346802;33;45173;-82
2021/08/18 12:13:45;;;;;;;;;;;17.10;96.90;;;;;;4333357;33;43912;-80
2021/08/18 12:16:21;;;;;;;;;;;17.10;96.90;;;;;;4346849;33;43716;-82
2021/08/18 12:18:51;;;;;;;;;;;17.10;96.90;;;;;;4333011;33;43239;-81
2021/08/18 12:21:19;;;;;;;;;;;17.10;96.80;;;;;;4346566;33;43274;-82
2021/08/18 12:23:49;;;;;;;;;;;17.20;96.80;;;;;;4333177;33;43942;-83
2021/08/18 12:26:29;;;;;;;;;;;17.20;96.80;;;;;;4346697;33;43663;-81
2021/08/18 12:28:57;;;;;;;;;;;17.20;96.80;;;;;;4346589;33;44202;-81
2021/08/18 12:31:25;;;;;;;;;;;17.20;96.80;;;;;;4346274;33;43027;-83
2021/08/18 12:34:11;;;;;;;;;;;17.20;96.80;;;;;;4333861;33;20006;-83
2021/08/18 12:36:38;;;;;;;;;;;17.20;96.80;;;;;;4333594;33;43197;-83
2021/08/18 12:39:05;;;;;;;;;;;17.20;96.80;;;;;;4333150;33;43308;-82
2021/08/18 12:41:33;;;;;;;;;;;17.20;96.80;;;;;;4346313;33;43833;-83
2021/08/18 12:44:07;;;;;;;;;;;17.20;96.70;;;;;;4345981;33;42614;-81
2021/08/18 12:46:35;;;;;;;;;;;17.20;96.70;;;;;;4345959;33;43063;-82
2021/08/18 12:49:22;;;;;;;;;;;17.20;96.70;;;;;;4346152;33;43571;-82
2021/08/18 12:51:49;;;;;;;;;;;17.20;96.70;;;;;;4346188;33;43474;-82
2021/08/18 12:54:16;;;;;;;;;;;17.20;96.70;;;;;;4332940;33;44273;-83
2021/08/18 12:56:43;;;;;;;;;;;17.30;96.70;;;;;;4346363;33;44224;-83
2021/08/18 12:59:10;;;;;;;;;;;17.30;96.70;;;;;;4345698;33;42665;-83
2021/08/18 13:01:37;;;;;;;;;;;17.30;96.70;;;;;;4332530;33;44177;-83
2021/08/18 13:04:05;;;;;;;;;;;17.30;96.70;;;;;;4345632;33;42717;-83
2021/08/18 13:06:32;;;;;;;;;;;17.30;96.70;;;;;;4345985;33;43968;-81
2021/08/18 13:08:59;;;;;;;;;;;17.30;96.70;;;;;;4345644;33;43855;-83
2021/08/18 13:11:26;;;;;;;;;;;17.30;96.70;;;;;;4332731;33;45726;-81
2021/08/18 13:13:53;;;;;;;;;;;17.30;96.70;;;;;;4345547;33;43570;-82
2021/08/18 13:16:20;;;;;;;;;;;17.30;96.70;;;;;;4345421;33;44011;-81
2021/08/18 13:18:48;;;;;;;;;;;17.30;96.70;;;;;;4345802;33;42993;-81
2021/08/18 13:21:15;;;;;;;;;;;17.30;96.70;;;;;;4332588;33;43974;-83
2021/08/18 13:23:42;;;;;;;;;;;17.30;96.70;;;;;;4332547;33;43302;-83
2021/08/18 13:26:09;;;;;;;;;;;17.30;96.70;;;;;;4332068;33;44921;-81
2021/08/18 13:28:37;;;;;;;;;;;17.30;96.70;;;;;;4332014;33;44551;-81
2021/08/18 13:31:04;;;;;;;;;;;17.30;96.70;;;;;;4331973;33;43484;-81
2021/08/18 13:33:32;;;;;;;;;;;17.30;96.70;;;;;;4332005;33;42384;-81
2021/08/18 13:36:00;;;;;;;;;;;17.30;96.70;;;;;;4332130;33;42950;-83
2021/08/18 13:38:28;;;;;;;;;;;17.30;96.70;;;;;;4345678;33;43984;-80
2021/08/18 13:40:55;;;;;;;;;;;17.40;96.70;;;;;;4345524;33;44215;-83
2021/08/18 13:43:22;;;;;;;;;;;17.40;96.70;;;;;;4345354;33;42800;-83
2021/08/18 13:45:49;;;;;;;;;;;17.40;96.70;;;;;;4345099;33;43400;-83
2021/08/18 13:48:16;;;;;;;;;;;17.40;96.70;;;;;;4345505;33;43956;-84
2021/08/18 13:50:43;;;;;;;;;;;17.40;96.70;;;;;;4345059;33;43324;-82
2021/08/18 13:53:10;;;;;;;;;;;17.40;96.70;;;;;;4331880;33;43839;-84
2021/08/18 13:55:40;;;;;;;;;;;17.50;96.70;;;;;;4345134;33;43307;-81
2021/08/18 13:58:07;;;;;;;;;;;17.50;96.70;;;;;;4345222;33;42824;-81
2021/08/18 14:00:37;;;;;;;;;;;17.50;96.70;;;;;;4344962;33;42050;-83
2021/08/18 14:03:06;;;;;;;;;;;17.50;96.60;;;;;;4344721;33;46107;-82
2021/08/18 14:05:34;;;;;;;;;;;17.50;96.60;;;;;;4331666;33;43037;-80
2021/08/18 14:08:08;;;;;;;;;;;17.50;96.60;;;;;;4344999;33;43629;-82
2021/08/18 14:10:36;;;;;;;;;;;17.60;96.60;;;;;;4345238;33;42021;-82
2021/08/18 14:13:04;;;;;;;;;;;17.50;96.70;;;;;;4332027;33;42424;-81
2021/08/18 14:15:32;;;;;;;;;;;17.60;96.60;;;;;;4344910;33;42890;-81
2021/08/18 14:18:00;;;;;;;;;;;17.60;96.60;;;;;;4345314;33;43272;-84
2021/08/18 14:20:27;;;;;;;;;;;17.60;96.60;;;;;;4344921;33;43209;-82
2021/08/18 14:22:54;;;;;;;;;;;17.60;96.50;;;;;;4347637;33;43351;-80
2021/08/18 14:25:22;;;;;;;;;;;17.60;96.50;;;;;;4334630;33;42832;-82
2021/08/18 14:27:49;;;;;;;;;;;17.60;96.50;;;;;;4348201;33;42641;-80
2021/08/18 14:30:17;;;;;;;;;;;17.60;96.40;;;;;;4347742;33;44171;-84
2021/08/18 14:32:44;;;;;;;;;;;17.70;96.50;;;;;;4347808;33;43849;-81
2021/08/18 14:35:12;;;;;;;;;;;17.60;96.40;;;;;;4347695;33;43249;-83